Terminal Aerodrome Forecast
Issued by NWS

Home | Current Version | Previous Version | Text Only | Print | Product List | Glossary On
Versions: 1 2 3 4 5 6 7 8 9 10 11 12 13 14 15 16 17 18 19
000
FTUS42 KILM 292338
TAFCRE
TAF
KCRE 292338Z 3000/3024 14011KT P6SM VCSH SCT020 BKN050
     FM300200 16011KT 6SM -SHRA FEW007 SCT015 BKN025
     FM300700 13004KT P6SM VCSH BKN008 OVC015
     FM301100 14006KT 5SM -SHRA BR BKN015
     FM301900 16009KT 6SM -RA BR SCT015 OVC025=

USA.gov is the U.S. government's official web portal to all federal, state and local government web resources and services.